Time;durP1;ratioP1;P1;durP2;ratioP2;P2;SDS_P1;SDS_P2;PMS_P1;PMS_P2;Temp;Humidity;BMP_temperature;BMP_pressure;BME280_temperature;BME280_humidity;BME280_pressure;Samples;Min_cycle;Max_cycle;Signal;HPM_P1;HPM_P2
2021/10/17 05:16:43;;;;;;;0.28;0.28;;;;;;;7.47;52.10;98370.66;5075914;28;20652;-70
2021/10/17 05:19:12;;;;;;;0.30;0.30;;;;;;;7.48;52.12;98372.31;5038513;28;20080;-69
2021/10/17 05:21:38;;;;;;;0.30;0.30;;;;;;;7.50;52.26;98381.16;5042989;28;20037;-68
2021/10/17 05:24:04;;;;;;;1.48;0.93;;;;;;;7.51;52.35;98371.91;5035075;28;20108;-69
2021/10/17 05:26:29;;;;;;;0.20;0.20;;;;;;;7.51;52.49;98375.44;5015373;28;20488;-66
2021/10/17 05:28:55;;;;;;;0.20;0.20;;;;;;;7.54;52.41;98363.25;5038865;28;20064;-69
2021/10/17 05:31:21;;;;;;;0.20;0.20;;;;;;;7.60;52.28;98373.25;5036810;28;20455;-69
2021/10/17 05:33:47;;;;;;;0.30;0.30;;;;;;;7.65;52.25;98359.75;5033691;28;20033;-71
2021/10/17 05:36:13;;;;;;;0.20;0.20;;;;;;;7.70;52.29;98361.81;5042917;28;20088;-69
2021/10/17 05:46:04;;;;;;;0.22;0.22;;;;;;;8.11;51.45;98354.78;5036147;28;20048;-69
2021/10/17 05:49:10;;;;;;;0.90;0.60;;;;;;;8.30;51.28;98341.91;5042043;28;20042;-73
2021/10/17 05:51:55;;;;;;;;;;;;;;;8.36;51.04;98349.22;5019583;28;20037;-71
2021/10/17 05:55:01;;;;;;;0.20;0.20;;;;;;;8.45;51.03;98340.69;5048392;28;19916;-70
2021/10/17 05:57:46;;;;;;;;;;;;;;;8.49;50.93;98341.91;5035381;28;20557;-70
2021/10/17 06:00:52;;;;;;;0.20;0.20;;;;;;;8.45;50.86;98341.53;5049727;28;19951;-71
2021/10/17 06:03:17;;;;;;;;;;;;;;;8.45;50.98;98338.81;5037015;28;20567;-74
2021/10/17 06:05:43;;;;;;;0.20;0.20;;;;;;;8.45;51.26;98332.47;5033784;28;19957;-71
2021/10/17 06:08:08;;;;;;;0.30;0.30;;;;;;;8.48;51.00;98345.69;5039150;28;20076;-72
2021/10/17 06:10:34;;;;;;;0.20;0.20;;;;;;;8.51;51.08;98343.34;5037926;28;20123;-71
2021/10/17 06:13:00;;;;;;;0.32;0.32;;;;;;;8.58;51.02;98340.50;5018235;28;20488;-72
2021/10/17 06:15:26;;;;;;;0.20;0.20;;;;;;;8.65;50.97;98343.13;5035828;28;20033;-72
2021/10/17 06:17:52;;;;;;;0.47;0.30;;;;;;;8.70;50.63;98344.09;5053717;28;20419;-72
2021/10/17 06:20:17;;;;;;;0.17;0.17;;;;;;;8.73;50.86;98337.31;5059566;28;20044;-71
2021/10/17 06:22:43;;;;;;;0.15;0.15;;;;;;;8.71;50.68;98337.53;5054956;28;20110;-70
2021/10/17 06:25:09;;;;;;;0.47;0.47;;;;;;;8.69;50.90;98325.19;5058975;28;20045;-68
2021/10/17 06:27:35;;;;;;;1.15;0.43;;;;;;;8.71;50.71;98326.59;5052977;28;20071;-72
2021/10/17 06:30:01;;;;;;;0.20;0.20;;;;;;;8.74;50.94;98320.66;5053731;28;20499;-67
2021/10/17 06:32:26;;;;;;;0.20;0.20;;;;;;;8.79;50.62;98317.22;5064700;28;20052;-67
2021/10/17 06:34:52;;;;;;;0.20;0.20;;;;;;;8.89;50.71;98322.09;5059907;28;20131;-70
2021/10/17 06:37:18;;;;;;;0.77;0.70;;;;;;;9.05;50.24;98326.88;5057863;28;20037;-70
2021/10/17 06:39:44;;;;;;;0.20;0.20;;;;;;;9.26;49.91;98303.56;5056667;28;20049;-65
2021/10/17 06:42:10;;;;;;;0.20;0.20;;;;;;;9.42;49.62;98310.22;5032304;28;20090;-67
2021/10/17 06:44:36;;;;;;;0.20;0.20;;;;;;;9.60;49.36;98311.16;5059677;28;20037;-66
2021/10/17 06:47:03;;;;;;;0.20;0.20;;;;;;;9.72;48.92;98287.28;5052113;28;20086;-68
2021/10/17 06:49:28;;;;;;;0.10;0.10;;;;;;;9.80;49.11;98306.13;5066601;28;20073;-66
2021/10/17 06:51:54;;;;;;;0.20;0.20;;;;;;;9.90;48.94;98294.50;5064323;28;20407;-66
2021/10/17 06:54:20;;;;;;;0.20;0.20;;;;;;;10.00;48.76;98302.94;5052049;28;20496;-67
2021/10/17 06:56:47;;;;;;;0.20;0.20;;;;;;;10.10;48.43;98298.72;5056212;28;20052;-66
2021/10/17 06:59:13;;;;;;;0.20;0.20;;;;;;;10.15;48.44;98299.66;5056756;28;20040;-66
2021/10/17 07:01:39;;;;;;;0.57;0.57;;;;;;;10.21;48.48;98299.78;5056487;28;20041;-65
2021/10/17 07:04:05;;;;;;;0.57;0.45;;;;;;;10.28;48.38;98303.22;5060781;28;20384;-66
2021/10/17 07:06:31;;;;;;;0.20;0.20;;;;;;;10.31;48.30;98287.06;5054732;28;20032;-67
2021/10/17 07:08:57;;;;;;;0.20;0.20;;;;;;;10.37;48.24;98292.69;5056360;28;20037;-67
2021/10/17 07:11:22;;;;;;;0.10;0.10;;;;;;;10.35;48.16;98290.22;5051928;28;20039;-67
2021/10/17 07:13:48;;;;;;;0.20;0.20;;;;;;;10.45;48.34;98300.50;5062803;28;20037;-66
2021/10/17 07:16:14;;;;;;;0.30;0.30;;;;;;;10.60;47.73;98291.72;5059885;28;20110;-67
2021/10/17 07:18:40;;;;;;;0.20;0.20;;;;;;;10.63;47.86;98289.31;5058645;28;20052;-67
2021/10/17 07:21:05;;;;;;;0.22;0.22;;;;;;;10.49;48.20;98294.28;5057178;28;20131;-69
2021/10/17 07:23:31;;;;;;;0.10;0.10;;;;;;;10.26;48.74;98289.72;5050260;28;20033;-68
2021/10/17 07:25:57;;;;;;;0.40;0.40;;;;;;;10.04;49.07;98292.34;5068055;28;20044;-66
2021/10/17 07:28:22;;;;;;;0.20;0.20;;;;;;;9.97;49.29;98284.22;5060342;28;20055;-67
2021/10/17 07:30:48;;;;;;;0.35;0.35;;;;;;;10.00;49.22;98277.44;5064612;28;20455;-69
2021/10/17 07:33:14;;;;;;;0.20;0.20;;;;;;;10.08;48.83;98287.19;5067025;28;20245;-66
2021/10/17 07:36:19;;;;;;;0.30;0.30;;;;;;;10.10;48.67;98285.88;5071050;28;20558;-66
2021/10/17 07:39:05;;;;;;;;;;;;;;;10.08;48.36;98263.31;5058582;28;20144;-66
2021/10/17 07:52:17;;;;;;;0.52;0.52;;;;;;;9.97;48.68;98254.06;5047517;28;20055;-68
2021/10/17 07:58:51;;;;;;;0.20;0.20;;;;;;;9.88;48.75;98254.69;5053882;28;20047;-66
2021/10/17 08:01:56;;;;;;;0.30;0.30;;;;;;;9.86;48.39;98249.44;5053023;28;20064;-70
2021/10/17 08:05:01;;;;;;;0.20;0.20;;;;;;;9.76;48.76;98244.63;5056233;28;20137;-69
2021/10/17 08:07:27;;;;;;;0.45;0.22;;;;;;;9.73;48.71;98247.84;5051380;28;20098;-68
2021/10/17 08:09:53;;;;;;;0.20;0.20;;;;;;;9.74;48.80;98241.25;5051167;28;20099;-68
2021/10/17 08:12:18;;;;;;;0.20;0.20;;;;;;;9.74;48.39;98254.97;5050449;28;20047;-67
2021/10/17 08:14:44;;;;;;;0.20;0.20;;;;;;;9.76;48.61;98261.06;5050162;28;20048;-70
2021/10/17 08:17:10;;;;;;;0.32;0.28;;;;;;;9.84;48.25;98257.09;5050752;28;20087;-71
2021/10/17 08:19:35;;;;;;;0.35;0.35;;;;;;;9.87;48.15;98253.88;5050180;28;20056;-69
2021/10/17 08:22:01;;;;;;;0.28;0.28;;;;;;;9.92;47.93;98259.47;5050074;28;20060;-68
2021/10/17 08:24:27;;;;;;;0.20;0.20;;;;;;;9.86;48.16;98257.69;5049586;28;20059;-69
2021/10/17 08:26:53;;;;;;;0.20;0.20;;;;;;;9.89;48.26;98259.09;5032532;28;20041;-68
2021/10/17 08:29:18;;;;;;;0.20;0.20;;;;;;;10.05;48.00;98260.25;5050185;28;20094;-73
2021/10/17 08:31:44;;;;;;;0.20;0.20;;;;;;;10.28;47.14;98264.78;5049637;28;20052;-67
2021/10/17 08:34:10;;;;;;;0.68;0.68;;;;;;;10.40;47.20;98257.34;5050079;28;20045;-68
2021/10/17 08:36:35;;;;;;;0.28;0.28;;;;;;;10.42;47.07;98257.91;5032133;28;20036;-67
2021/10/17 08:39:01;;;;;;;0.30;0.30;;;;;;;10.41;47.24;98250.78;5050029;28;20144;-70
2021/10/17 08:41:27;;;;;;;0.20;0.20;;;;;;;10.43;47.25;98247.78;5049279;28;20044;-68
2021/10/17 08:43:53;;;;;;;0.20;0.20;;;;;;;10.50;46.87;98257.53;5049842;28;20133;-70
2021/10/17 08:46:19;;;;;;;0.20;0.20;;;;;;;10.66;46.78;98253.13;5031790;28;20045;-71
2021/10/17 08:48:50;;;;;;;0.30;0.30;;;;;;;10.77;46.38;98248.63;5049719;28;20084;-69
2021/10/17 08:51:17;;;;;;;1.20;0.40;;;;;;;10.85;46.21;98239.13;5050063;28;20063;-70
2021/10/17 08:53:43;;;;;;;0.30;0.30;;;;;;;10.90;46.21;98252.97;5048730;28;20045;-68
2021/10/17 08:56:13;;;;;;;0.75;0.75;;;;;;;10.96;46.07;98251.13;5049531;28;20518;-74
2021/10/17 08:58:39;;;;;;;0.20;0.20;;;;;;;10.96;46.15;98251.94;5049935;28;20134;-72
2021/10/17 09:01:18;;;;;;;2.85;0.40;;;;;;;10.99;46.44;98245.13;5046863;28;20037;-70
2021/10/17 09:03:53;;;;;;;0.40;0.40;;;;;;;10.97;46.41;98236.31;5049499;28;20048;-71
2021/10/17 09:06:26;;;;;;;0.30;0.30;;;;;;;10.97;46.39;98245.38;5049146;28;20123;-73
2021/10/17 09:09:18;;;;;;;0.20;0.20;;;;;;;10.97;46.57;98239.06;5049107;28;20047;-72
2021/10/17 09:11:47;;;;;;;0.20;0.20;;;;;;;10.89;46.71;98243.03;5059481;28;20048;-69
2021/10/17 09:14:22;;;;;;;0.57;0.50;;;;;;;10.75;46.86;98256.31;5066652;28;20064;-74
2021/10/17 09:16:50;;;;;;;0.20;0.20;;;;;;;10.60;46.94;98240.41;5064139;28;20129;-74
2021/10/17 09:19:23;;;;;;;0.28;0.28;;;;;;;10.44;47.06;98244.81;5049144;28;20049;-73
2021/10/17 09:22:09;;;;;;;0.20;0.20;;;;;;;10.34;47.52;98253.69;5049464;28;20045;-71
2021/10/17 09:24:49;;;;;;;0.40;0.40;;;;;;;10.33;47.20;98251.16;5049273;28;20049;-69
2021/10/17 09:27:21;;;;;;;0.17;0.17;;;;;;;10.32;47.26;98242.09;5048985;28;20045;-69
2021/10/17 09:29:49;;;;;;;0.25;0.25;;;;;;;10.30;47.46;98236.00;5048548;28;20411;-69
2021/10/17 09:32:22;;;;;;;0.20;0.20;;;;;;;10.26;47.22;98240.34;5070215;28;20072;-69
2021/10/17 09:34:57;;;;;;;0.10;0.10;;;;;;;10.31;47.07;98234.94;5070679;28;20037;-68
2021/10/17 09:37:38;;;;;;;0.30;0.30;;;;;;;10.31;47.24;98226.69;5069145;28;20051;-69
2021/10/17 09:40:18;;;;;;;0.30;0.30;;;;;;;10.30;47.24;98227.78;5067638;28;20477;-70
2021/10/17 09:43:04;;;;;;;0.93;0.32;;;;;;;10.28;47.31;98221.72;5070492;28;20040;-67
2021/10/17 09:45:29;;;;;;;0.20;0.20;;;;;;;10.22;47.29;98210.88;5069887;28;20129;-67
2021/10/17 09:47:55;;;;;;;0.30;0.30;;;;;;;10.22;47.04;98202.66;5060700;28;20127;-79
2021/10/17 09:50:21;;;;;;;0.47;0.45;;;;;;;10.27;47.02;98206.31;5054755;28;20049;-69
2021/10/17 09:52:53;;;;;;;0.20;0.20;;;;;;;10.33;47.14;98215.47;5069423;28;20040;-70
2021/10/17 09:55:19;;;;;;;0.40;0.40;;;;;;;10.41;46.99;98214.25;5060401;28;20178;-71
2021/10/17 09:57:45;;;;;;;0.30;0.30;;;;;;;10.51;46.89;98211.69;5050107;28;20629;-70
2021/10/17 10:00:11;;;;;;;0.52;0.52;;;;;;;10.65;46.60;98214.94;5049724;28;20127;-70
2021/10/17 10:02:38;;;;;;;0.22;0.22;;;;;;;10.75;46.55;98204.13;5058067;28;20036;-72
2021/10/17 10:05:04;;;;;;;0.57;0.38;;;;;;;10.82;46.22;98207.53;5069732;28;20037;-72
2021/10/17 10:07:31;;;;;;;0.20;0.20;;;;;;;10.85;46.32;98200.69;5069746;28;20045;-69
2021/10/17 10:10:02;;;;;;;0.38;0.28;;;;;;;10.86;46.19;98194.13;5068344;28;20042;-71
2021/10/17 10:12:28;;;;;;;0.30;0.30;;;;;;;10.87;45.95;98193.03;5060819;28;20084;-70
2021/10/17 10:14:56;;;;;;;0.32;0.32;;;;;;;10.90;45.94;98195.28;5064431;28;20066;-72
2021/10/17 10:17:42;;;;;;;0.47;0.47;;;;;;;10.93;46.17;98188.47;5051335;28;20052;-69
2021/10/17 10:20:09;;;;;;;0.52;0.50;;;;;;;11.01;45.94;98185.25;5047402;28;20037;-69
2021/10/17 10:22:35;;;;;;;0.38;0.22;;;;;;;11.02;46.08;98200.66;5055003;28;20041;-67
2021/10/17 10:25:01;;;;;;;0.65;0.65;;;;;;;10.98;46.04;98196.75;5051471;28;20500;-70
2021/10/17 10:27:28;;;;;;;0.65;0.60;;;;;;;10.93;46.22;98180.22;5063693;28;20037;-68
2021/10/17 10:30:27;;;;;;;0.10;0.10;;;;;;;10.83;46.25;98181.72;5038693;28;20033;-67
2021/10/17 10:33:05;;;;;;;0.10;0.10;;;;;;;10.75;46.34;98195.88;5053225;28;20504;-72
2021/10/17 10:35:31;;;;;;;0.75;0.75;;;;;;;10.66;46.40;98191.91;5054570;28;20556;-69
2021/10/17 10:37:57;;;;;;;2.05;0.98;;;;;;;10.61;46.37;98198.13;5053974;28;20171;-72
2021/10/17 10:40:23;;;;;;;0.38;0.38;;;;;;;10.53;46.63;98193.06;5052429;28;20102;-78
2021/10/17 10:42:52;;;;;;;0.57;0.57;;;;;;;10.43;46.78;98182.75;5056619;28;20443;-75
2021/10/17 10:45:20;;;;;;;0.25;0.25;;;;;;;10.32;46.73;98192.69;5056596;28;20040;-77
2021/10/17 10:51:08;;;;;;;0.13;0.13;;;;;;;10.22;46.59;98175.22;5048790;28;20078;-73
2021/10/17 10:53:50;;;;;;;0.77;0.77;;;;;;;10.35;46.60;98174.94;5052328;28;20080;-74
2021/10/17 10:56:35;;;;;;;0.20;0.20;;;;;;;10.44;46.12;98180.84;5072468;28;20485;-69
2021/10/17 10:59:00;;;;;;;0.20;0.20;;;;;;;10.50;45.87;98194.41;5071406;28;20040;-65
2021/10/17 11:02:18;;;;;;;0.30;0.30;;;;;;;10.56;46.09;98183.50;5068287;28;20047;-67
2021/10/17 11:04:46;;;;;;;0.13;0.13;;;;;;;10.63;45.88;98175.91;5053924;28;20076;-67
2021/10/17 11:07:31;;;;;;;0.15;0.15;;;;;;;10.63;45.61;98168.53;5051703;28;20041;-70
2021/10/17 11:10:23;;;;;;;0.32;0.32;;;;;;;10.58;45.78;98170.34;5053496;28;20515;-69
2021/10/17 11:12:55;;;;;;;0.20;0.20;;;;;;;10.54;45.94;98182.91;5055550;28;20468;-68
2021/10/17 11:15:24;;;;;;;0.10;0.10;;;;;;;10.47;45.92;98183.91;5063423;28;20554;-68
2021/10/17 11:17:58;;;;;;;0.57;0.57;;;;;;;10.44;46.09;98181.69;5053417;28;20504;-67
2021/10/17 11:20:30;;;;;;;0.28;0.28;;;;;;;10.41;46.11;98184.91;5058409;28;20079;-67
2021/10/17 11:22:57;;;;;;;0.50;0.45;;;;;;;10.38;46.03;98179.09;5052553;28;20124;-68
2021/10/17 11:25:25;;;;;;;0.20;0.20;;;;;;;10.36;46.27;98181.25;5059862;28;20079;-69
2021/10/17 11:27:52;;;;;;;0.20;0.20;;;;;;;10.34;46.30;98173.28;5051732;28;20486;-67
2021/10/17 11:30:36;;;;;;;0.30;0.30;;;;;;;10.29;46.29;98178.63;5058758;28;20131;-66
2021/10/17 11:33:07;;;;;;;0.22;0.22;;;;;;;10.24;46.44;98167.59;5061974;28;20124;-68
2021/10/17 11:35:36;;;;;;;0.77;0.77;;;;;;;10.18;46.31;98152.94;5064533;28;20479;-69
2021/10/17 11:38:06;;;;;;;0.13;0.13;;;;;;;10.14;46.12;98168.22;5057586;28;20491;-69
2021/10/17 11:40:33;;;;;;;0.20;0.20;;;;;;;10.08;46.60;98159.06;5051070;28;20099;-68
2021/10/17 11:43:07;;;;;;;0.10;0.10;;;;;;;10.03;46.58;98164.50;5051936;28;20052;-68
2021/10/17 11:45:38;;;;;;;0.20;0.20;;;;;;;9.96;46.85;98158.31;5070509;28;20048;-65
2021/10/17 11:48:07;;;;;;;0.20;0.20;;;;;;;9.87;46.82;98152.41;5073635;28;20051;-67
2021/10/17 11:50:47;;;;;;;0.30;0.30;;;;;;;9.81;46.75;98156.97;5073551;28;20045;-68
2021/10/17 11:53:15;;;;;;;0.38;0.38;;;;;;;9.77;46.89;98158.53;5073207;28;20127;-70
2021/10/17 11:55:47;;;;;;;0.17;0.17;;;;;;;9.75;46.85;98173.56;5073204;28;20077;-68
2021/10/17 11:58:18;;;;;;;1.15;0.73;;;;;;;9.72;46.81;98161.19;5073443;28;20446;-67
2021/10/17 12:00:46;;;;;;;0.25;0.25;;;;;;;9.69;46.81;98174.53;5072806;28;20041;-67
2021/10/17 12:03:12;;;;;;;0.25;0.25;;;;;;;9.68;47.01;98164.66;5064674;28;20047;-68
2021/10/17 12:05:45;;;;;;;0.22;0.22;;;;;;;9.65;46.73;98165.97;5053245;28;20040;-67
2021/10/17 12:08:21;;;;;;;0.28;0.28;;;;;;;9.64;46.66;98167.91;5071238;28;20155;-67
2021/10/17 12:11:02;;;;;;;0.52;0.52;;;;;;;9.63;46.81;98168.16;5066838;28;20075;-69
2021/10/17 12:13:37;;;;;;;6.03;0.40;;;;;;;9.61;46.48;98175.75;5061845;28;20189;-68
2021/10/17 12:16:05;;;;;;;0.47;0.47;;;;;;;9.56;46.82;98170.19;5058378;28;20049;-66
2021/10/17 12:18:32;;;;;;;0.35;0.35;;;;;;;9.56;46.57;98161.97;5054570;28;20515;-65
2021/10/17 12:20:58;;;;;;;0.63;0.40;;;;;;;9.56;46.66;98164.72;5058453;28;20048;-67
2021/10/17 12:23:25;;;;;;;0.28;0.28;;;;;;;9.54;46.64;98173.19;5036667;28;20460;-68
2021/10/17 12:25:51;;;;;;;1.10;0.50;;;;;;;9.52;46.59;98179.97;5061558;28;20049;-69
2021/10/17 12:28:18;;;;;;;0.30;0.30;;;;;;;9.45;46.71;98172.72;5051220;28;20052;-71
2021/10/17 12:30:51;;;;;;;10.07;0.98;;;;;;;9.36;47.01;98171.44;5053702;28;20503;-70
2021/10/17 12:33:36;;;;;;;0.52;0.43;;;;;;;9.24;47.26;98173.38;5065306;28;20083;-68
2021/10/17 12:36:03;;;;;;;0.35;0.35;;;;;;;9.08;47.33;98178.53;5065506;28;20052;-68
2021/10/17 12:38:36;;;;;;;0.40;0.40;;;;;;;8.97;47.45;98176.66;5067129;28;20048;-70
2021/10/17 12:41:07;;;;;;;0.52;0.45;;;;;;;8.85;47.66;98170.34;5055047;28;20045;-71
2021/10/17 12:43:35;;;;;;;0.40;0.40;;;;;;;8.73;47.79;98173.06;5064035;28;20515;-71
2021/10/17 12:46:18;;;;;;;1.08;0.57;;;;;;;8.63;48.08;98165.50;5060009;28;20537;-68
2021/10/17 12:48:50;;;;;;;1.45;0.90;;;;;;;8.53;48.18;98178.94;5067769;28;20040;-71
2021/10/17 12:51:30;;;;;;;0.82;0.77;;;;;;;8.46;48.18;98184.50;5066525;28;20197;-67
2021/10/17 12:54:15;;;;;;;0.60;0.60;;;;;;;8.35;48.11;98180.66;5062778;28;20047;-65
2021/10/17 12:57:02;;;;;;;1.50;0.93;;;;;;;8.28;48.27;98179.94;5047701;28;20041;-65
2021/10/17 12:59:34;;;;;;;0.40;0.40;;;;;;;8.23;48.41;98188.03;5052798;28;20041;-67
2021/10/17 13:02:03;;;;;;;0.35;0.35;;;;;;;8.18;48.14;98191.44;5056256;28;20087;-70
2021/10/17 13:04:50;;;;;;;0.50;0.50;;;;;;;8.12;48.39;98188.81;5052641;28;20041;-66
2021/10/17 13:07:29;;;;;;;0.30;0.30;;;;;;;8.04;48.42;98188.09;5057286;28;20047;-67
2021/10/17 13:10:00;;;;;;;0.57;0.57;;;;;;;7.99;48.50;98193.41;5055841;28;20094;-66
2021/10/17 13:12:27;;;;;;;0.20;0.20;;;;;;;7.94;48.41;98193.28;5054889;28;20044;-65
2021/10/17 13:15:13;;;;;;;0.60;0.30;;;;;;;7.90;48.48;98192.09;5068031;28;20055;-69
2021/10/17 13:17:42;;;;;;;0.20;0.20;;;;;;;7.87;48.50;98200.75;5047194;28;20049;-66
2021/10/17 13:20:12;;;;;;;0.40;0.40;;;;;;;7.83;48.50;98205.00;5055765;28;20045;-67
2021/10/17 13:22:43;;;;;;;0.30;0.30;;;;;;;7.78;48.61;98208.44;5052833;28;20037;-67
2021/10/17 13:25:09;;;;;;;0.55;0.40;;;;;;;7.70;48.68;98215.06;5066451;28;20037;-69
2021/10/17 13:27:36;;;;;;;2.00;1.05;;;;;;;7.64;48.78;98201.50;5066125;28;20106;-66
2021/10/17 13:30:02;;;;;;;1.45;0.98;;;;;;;7.57;48.91;98204.31;5055907;28;20402;-69
2021/10/17 13:32:31;;;;;;;0.65;0.65;;;;;;;7.55;49.02;98220.09;5069118;28;20044;-68
2021/10/17 13:34:59;;;;;;;0.45;0.45;;;;;;;7.53;48.86;98208.56;5068166;28;20083;-67
2021/10/17 13:37:25;;;;;;;0.50;0.50;;;;;;;7.48;48.86;98211.16;5057382;28;20041;-68
2021/10/17 13:39:51;;;;;;;0.52;0.45;;;;;;;7.45;48.87;98214.34;5049720;28;20558;-67
2021/10/17 13:42:18;;;;;;;0.80;0.80;;;;;;;7.41;48.97;98215.88;5060629;28;20051;-66
2021/10/17 13:44:43;;;;;;;1.92;0.57;;;;;;;7.34;49.06;98216.78;5051935;28;20431;-68
2021/10/17 13:47:09;;;;;;;0.43;0.43;;;;;;;7.27;49.20;98220.66;5052761;28;20048;-68
2021/10/17 13:49:35;;;;;;;1.35;1.10;;;;;;;7.22;49.22;98212.31;5052403;28;20033;-70
2021/10/17 13:52:01;;;;;;;0.50;0.50;;;;;;;7.18;49.37;98220.13;5051389;28;20420;-68
2021/10/17 13:54:27;;;;;;;0.52;0.52;;;;;;;7.17;49.43;98222.03;5052420;28;20037;-68
2021/10/17 13:56:55;;;;;;;0.80;0.63;;;;;;;7.15;49.19;98215.13;5053936;28;20048;-70
2021/10/17 13:59:27;;;;;;;0.45;0.45;;;;;;;7.12;49.30;98213.66;5051328;28;20135;-68
2021/10/17 14:01:53;;;;;;;0.40;0.40;;;;;;;7.11;49.29;98217.47;5056911;28;20041;-65
2021/10/17 14:04:20;;;;;;;0.52;0.50;;;;;;;7.09;49.28;98205.13;5054801;28;20437;-66
2021/10/17 14:06:47;;;;;;;0.47;0.47;;;;;;;7.09;49.50;98216.03;5055310;28;20036;-70
2021/10/17 14:09:13;;;;;;;0.90;0.30;;;;;;;7.05;49.37;98207.44;5049471;28;20040;-68
2021/10/17 14:11:39;;;;;;;0.60;0.60;;;;;;;7.00;49.36;98207.31;5048460;28;20044;-69
2021/10/17 14:14:05;;;;;;;0.65;0.55;;;;;;;6.97;49.49;98214.06;5051882;28;20033;-65
2021/10/17 14:16:31;;;;;;;0.68;0.45;;;;;;;6.93;49.60;98212.00;5051197;28;20044;-67
2021/10/17 14:18:57;;;;;;;0.30;0.30;;;;;;;6.87;49.53;98210.19;5038414;28;20105;-71
2021/10/17 14:21:23;;;;;;;0.52;0.50;;;;;;;6.83;49.70;98209.78;5032524;28;20045;-71
2021/10/17 14:23:49;;;;;;;0.35;0.32;;;;;;;6.82;49.73;98216.31;5037922;28;20049;-69
2021/10/17 14:26:15;;;;;;;0.22;0.22;;;;;;;6.79;49.63;98214.03;5025410;28;20063;-70
2021/10/17 14:28:41;;;;;;;0.98;0.30;;;;;;;6.75;49.71;98215.56;5038553;28;20500;-70
2021/10/17 14:31:09;;;;;;;0.63;0.63;;;;;;;6.73;49.79;98217.66;5038344;28;20052;-69
2021/10/17 14:33:35;;;;;;;0.35;0.35;;;;;;;6.68;49.83;98210.13;5035611;28;20045;-69
2021/10/17 14:36:01;;;;;;;0.30;0.30;;;;;;;6.66;49.92;98212.28;5037987;28;20124;-68
2021/10/17 14:38:30;;;;;;;0.30;0.30;;;;;;;6.63;49.96;98210.81;5035204;28;20041;-71
2021/10/17 14:40:57;;;;;;;0.25;0.25;;;;;;;6.61;50.00;98217.53;5034342;28;20056;-68
2021/10/17 14:43:23;;;;;;;0.63;0.63;;;;;;;6.58;49.96;98216.13;5037063;28;20187;-69
2021/10/17 14:45:49;;;;;;;1.15;1.15;;;;;;;6.57;49.96;98214.44;5037959;28;20100;-70
2021/10/17 14:48:16;;;;;;;0.35;0.30;;;;;;;6.54;50.02;98223.06;5047186;28;20128;-69
2021/10/17 14:50:42;;;;;;;0.20;0.20;;;;;;;6.52;50.26;98219.72;5047832;28;20095;-71
2021/10/17 14:53:09;;;;;;;0.22;0.22;;;;;;;6.47;49.90;98211.38;5053040;28;20075;-71
2021/10/17 14:55:35;;;;;;;0.30;0.30;;;;;;;6.45;50.16;98211.63;5052657;28;20132;-72
2021/10/17 14:58:01;;;;;;;0.20;0.20;;;;;;;6.43;50.29;98218.34;5049148;28;20571;-68
2021/10/17 15:00:27;;;;;;;0.20;0.20;;;;;;;6.39;50.36;98215.25;5040600;28;20060;-67
2021/10/17 15:02:52;;;;;;;0.40;0.40;;;;;;;6.37;50.33;98219.25;5052022;28;20044;-70
2021/10/17 15:05:19;;;;;;;0.30;0.30;;;;;;;6.36;50.33;98220.28;5041787;28;20045;-74
2021/10/17 15:07:46;;;;;;;0.32;0.32;;;;;;;6.31;50.35;98229.13;5041136;28;20068;-67
2021/10/17 15:10:11;;;;;;;0.50;0.50;;;;;;;6.28;50.51;98227.69;5044927;28;20135;-67
2021/10/17 15:12:37;;;;;;;0.20;0.20;;;;;;;6.24;50.43;98234.66;5048093;28;20044;-67
2021/10/17 15:15:08;;;;;;;0.20;0.20;;;;;;;6.22;50.49;98228.56;5038860;28;20530;-67
2021/10/17 15:17:34;;;;;;;0.40;0.35;;;;;;;6.22;50.54;98228.56;5026326;28;20064;-67
2021/10/17 15:20:00;;;;;;;0.60;0.60;;;;;;;6.23;50.57;98232.16;5047617;28;20057;-68
2021/10/17 15:22:31;;;;;;;0.30;0.30;;;;;;;6.27;50.41;98230.63;5046010;28;20045;-67
2021/10/17 15:24:57;;;;;;;0.30;0.30;;;;;;;6.27;50.41;98226.03;5039138;28;20041;-69
2021/10/17 15:27:23;;;;;;;0.20;0.20;;;;;;;6.26;50.49;98228.97;5038908;28;20064;-69
2021/10/17 15:29:49;;;;;;;1.10;0.45;;;;;;;6.23;50.53;98227.53;5048549;28;20048;-69
2021/10/17 15:32:15;;;;;;;0.20;0.20;;;;;;;6.21;50.53;98224.16;5040949;28;20116;-69
2021/10/17 15:34:41;;;;;;;0.50;0.50;;;;;;;6.16;50.60;98224.00;5037195;28;20036;-68
2021/10/17 15:37:07;;;;;;;0.30;0.30;;;;;;;6.12;50.75;98226.34;5042108;28;20519;-68
2021/10/17 15:39:32;;;;;;;0.20;0.20;;;;;;;6.05;50.72;98213.81;5045614;28;20048;-66
2021/10/17 15:41:58;;;;;;;0.30;0.30;;;;;;;6.06;50.84;98218.22;5039663;28;20076;-67
2021/10/17 15:44:24;;;;;;;0.40;0.40;;;;;;;6.02;50.91;98208.78;5043373;28;20041;-69
2021/10/17 15:46:50;;;;;;;0.43;0.43;;;;;;;6.00;50.95;98216.38;5039482;28;20048;-68
2021/10/17 15:49:16;;;;;;;0.65;0.65;;;;;;;5.93;51.08;98209.06;5045419;28;20087;-69
2021/10/17 15:51:43;;;;;;;0.52;0.52;;;;;;;5.91;51.14;98211.13;5022351;28;20376;-68
2021/10/17 15:54:09;;;;;;;0.50;0.50;;;;;;;5.86;51.16;98208.25;5039670;28;20029;-68
2021/10/17 15:56:35;;;;;;;0.30;0.30;;;;;;;5.84;51.52;98217.69;5043972;28;20515;-71
2021/10/17 15:59:08;;;;;;;0.65;0.30;;;;;;;5.83;51.33;98211.41;5041694;28;20136;-69
2021/10/17 16:01:38;;;;;;;0.35;0.35;;;;;;;5.82;51.25;98208.91;5038607;28;20127;-68
2021/10/17 16:04:08;;;;;;;0.20;0.20;;;;;;;5.80;51.42;98209.13;5043597;28;20447;-70
2021/10/17 16:06:34;;;;;;;0.30;0.30;;;;;;;5.78;51.37;98216.66;5039714;28;20040;-68
2021/10/17 16:09:00;;;;;;;0.20;0.20;;;;;;;5.77;51.36;98223.16;5037851;28;20124;-68
2021/10/17 16:11:26;;;;;;;0.35;0.35;;;;;;;5.74;51.34;98221.75;5042152;28;20052;-68
2021/10/17 16:13:55;;;;;;;0.63;0.63;;;;;;;5.74;51.36;98218.16;5039262;28;20041;-66
2021/10/17 16:16:21;;;;;;;0.30;0.30;;;;;;;5.73;51.25;98219.22;5040627;28;20530;-68
2021/10/17 16:18:47;;;;;;;0.32;0.32;;;;;;;5.72;51.27;98215.66;5040423;28;20053;-70
2021/10/17 16:21:13;;;;;;;0.20;0.20;;;;;;;5.71;51.48;98224.03;5044672;28;20096;-69
2021/10/17 16:23:39;;;;;;;0.65;0.65;;;;;;;5.68;51.34;98216.31;5037612;28;20034;-68
2021/10/17 16:26:05;;;;;;;0.57;0.52;;;;;;;5.67;51.49;98214.63;5042299;28;20321;-67
2021/10/17 16:28:37;;;;;;;0.30;0.30;;;;;;;5.66;51.50;98210.25;5039979;28;20068;-67
2021/10/17 16:31:05;;;;;;;0.30;0.30;;;;;;;5.64;51.50;98221.38;5040286;28;20104;-71
2021/10/17 16:33:33;;;;;;;0.28;0.28;;;;;;;5.63;51.56;98214.25;5037938;28;20040;-70
2021/10/17 16:36:00;;;;;;;0.40;0.40;;;;;;;5.63;51.51;98218.88;5042475;28;20044;-70
2021/10/17 16:38:26;;;;;;;0.30;0.30;;;;;;;5.61;51.65;98222.63;5042824;28;20067;-71
2021/10/17 16:40:52;;;;;;;0.57;0.57;;;;;;;5.58;51.63;98222.22;5042069;28;20092;-68
2021/10/17 16:43:18;;;;;;;0.20;0.20;;;;;;;5.57;51.61;98226.00;5041525;28;20071;-72
2021/10/17 16:45:45;;;;;;;0.47;0.47;;;;;;;5.57;51.70;98223.28;5022482;28;20037;-69
2021/10/17 16:48:11;;;;;;;0.25;0.25;;;;;;;5.56;51.74;98218.88;5034345;28;20244;-70
2021/10/17 16:50:39;;;;;;;0.40;0.40;;;;;;;5.53;51.91;98222.88;5037567;28;20076;-78
2021/10/17 16:53:05;;;;;;;0.40;0.40;;;;;;;5.51;51.89;98226.88;5038486;28;20037;-70
2021/10/17 16:55:31;;;;;;;0.52;0.52;;;;;;;5.49;51.80;98232.56;5050635;28;20048;-72
2021/10/17 16:57:58;;;;;;;0.95;0.63;;;;;;;5.48;52.05;98230.88;5040726;28;20045;-70
2021/10/17 17:00:24;;;;;;;0.22;0.22;;;;;;;5.46;52.02;98227.50;5041915;28;20162;-68
2021/10/17 17:02:50;;;;;;;0.38;0.38;;;;;;;5.44;52.03;98237.78;5036330;28;20045;-70
2021/10/17 17:05:16;;;;;;;0.20;0.20;;;;;;;5.41;52.14;98228.16;5040053;28;20029;-69
2021/10/17 17:07:44;;;;;;;0.28;0.28;;;;;;;5.40;52.21;98240.13;5042754;28;20424;-71
2021/10/17 17:10:10;;;;;;;0.28;0.28;;;;;;;5.37;52.30;98234.25;5048663;28;20045;-68
2021/10/17 17:12:36;;;;;;;0.30;0.30;;;;;;;5.35;52.36;98233.66;5047018;28;20424;-69
2021/10/17 17:15:04;;;;;;;0.25;0.25;;;;;;;5.35;52.37;98233.66;5039759;28;20148;-70
2021/10/17 17:17:29;;;;;;;0.20;0.20;;;;;;;5.31;52.51;98235.13;5038801;28;20085;-65
2021/10/17 17:19:55;;;;;;;0.40;0.40;;;;;;;5.32;52.28;98239.53;5041159;28;20044;-65
2021/10/17 17:22:22;;;;;;;0.28;0.28;;;;;;;5.31;52.36;98230.50;5040832;28;20030;-67
2021/10/17 17:24:48;;;;;;;3.00;0.80;;;;;;;5.31;52.32;98226.97;5039316;28;20044;-69
2021/10/17 17:27:14;;;;;;;0.30;0.30;;;;;;;5.32;52.46;98228.63;5058448;28;20041;-71
2021/10/17 17:29:42;;;;;;;0.20;0.20;;;;;;;5.31;52.43;98226.97;5052136;28;20486;-69
2021/10/17 17:32:08;;;;;;;0.40;0.40;;;;;;;5.34;52.29;98231.97;5041311;28;20068;-68